createdAt,value
2022-09-14T00:01:40.722Z,0
2022-09-14T00:06:53.247Z,0
2022-09-14T00:12:10.202Z,0
2022-09-14T00:17:27.644Z,0
2022-09-14T00:22:43.813Z,0
2022-09-14T00:28:00.445Z,0
2022-09-14T00:33:17.932Z,0
2022-09-14T00:38:35.485Z,0
2022-09-14T00:43:54.045Z,0
2022-09-14T00:49:10.246Z,0
2022-09-14T00:54:20.626Z,0
2022-09-14T00:59:30.387Z,0
2022-09-14T01:04:40.230Z,0
2022-09-14T01:09:48.648Z,0
2022-09-14T01:14:58.383Z,0
2022-09-14T01:20:06.859Z,0
2022-09-14T01:24:29.803Z,0
2022-09-14T01:29:20.804Z,0
2022-09-14T01:34:29.926Z,0
2022-09-14T01:39:39.040Z,0
2022-09-14T01:44:48.799Z,0
2022-09-14T01:49:59.445Z,0
2022-09-14T01:55:08.334Z,0
2022-09-14T02:00:16.821Z,0
2022-09-14T02:05:27.198Z,0
2022-09-14T02:10:40.163Z,0
2022-09-14T02:15:49.558Z,0
2022-09-14T02:21:18.889Z,0
2022-09-14T02:26:32.438Z,0
2022-09-14T02:31:43.156Z,0
2022-09-14T02:36:52.002Z,0
2022-09-14T02:42:02.415Z,0
2022-09-14T02:47:16.645Z,0
2022-09-14T02:52:38.893Z,0
2022-09-14T02:57:40.017Z,0
2022-09-14T03:02:53.133Z,0
2022-09-14T03:08:02.762Z,0
2022-09-14T03:13:11.857Z,0
2022-09-14T03:18:20.989Z,0
2022-09-14T03:23:33.920Z,0
2022-09-14T03:28:48.170Z,0
2022-09-14T03:34:27.334Z,0
2022-09-14T03:39:36.482Z,0
2022-09-14T03:44:45.605Z,0
2022-09-14T03:49:54.723Z,0
2022-09-14T03:55:05.135Z,0
2022-09-14T04:00:24.634Z,0
2022-09-14T04:05:34.258Z,0
2022-09-14T04:10:46.597Z,0
2022-09-14T04:15:59.764Z,0
2022-09-14T04:21:26.572Z,0
2022-09-14T04:26:36.319Z,0
2022-09-14T04:32:06.504Z,0
2022-09-14T04:36:53.920Z,0
2022-09-14T04:42:02.399Z,0
2022-09-14T04:47:11.543Z,0
2022-09-14T04:52:20.654Z,0
2022-09-14T04:57:31.282Z,1
2022-09-14T05:02:48.114Z,1
2022-09-14T05:08:06.127Z,2
2022-09-14T05:13:22.446Z,3
2022-09-14T05:18:40.016Z,5
2022-09-14T05:23:56.049Z,7
2022-09-14T05:29:15.404Z,10
2022-09-14T05:34:32.205Z,12
2022-09-14T05:38:59.006Z,17
2022-09-14T05:43:52.493Z,24
2022-09-14T05:49:01.609Z,33
2022-09-14T05:54:10.739Z,40
2022-09-14T05:59:19.209Z,41
2022-09-14T06:04:28.967Z,42
2022-09-14T06:09:36.850Z,46
2022-09-14T06:14:48.424Z,49
2022-09-14T06:20:05.124Z,55
2022-09-14T06:25:07.996Z,57
2022-09-14T06:30:16.575Z,50
2022-09-14T06:35:25.606Z,58
2022-09-14T06:40:36.018Z,54
2022-09-14T06:45:44.475Z,62
2022-09-14T06:50:53.605Z,78
2022-09-14T06:56:03.383Z,73
2022-09-14T07:01:12.503Z,75
2022-09-14T07:06:21.014Z,97
2022-09-14T07:11:29.461Z,92
2022-09-14T07:16:39.196Z,96
2022-09-14T07:21:48.975Z,128
2022-09-14T07:26:58.722Z,201
2022-09-14T07:32:07.217Z,221
2022-09-14T07:37:16.413Z,297
2022-09-14T07:42:26.083Z,271
2022-09-14T07:47:35.216Z,204
2022-09-14T07:52:44.965Z,196
2022-09-14T07:57:57.081Z,179
2022-09-14T08:03:05.764Z,175
2022-09-14T08:08:15.527Z,243
2022-09-14T08:13:24.886Z,306
2022-09-14T08:18:33.784Z,262
2022-09-14T08:23:42.242Z,237
2022-09-14T08:28:51.378Z,195
2022-09-14T08:34:02.119Z,200
2022-09-14T08:39:18.761Z,208
2022-09-14T08:44:34.929Z,236
2022-09-14T08:49:52.601Z,285
2022-09-14T08:55:10.132Z,378
2022-09-14T09:00:27.885Z,397
2022-09-14T09:05:44.687Z,372
2022-09-14T09:11:01.647Z,490
2022-09-14T09:16:17.693Z,502
2022-09-14T09:20:43.964Z,377
2022-09-14T09:25:34.242Z,385
2022-09-14T09:30:44.000Z,410
2022-09-14T09:35:53.135Z,376
2022-09-14T09:41:02.883Z,352
2022-09-14T09:46:12.983Z,332
2022-09-14T09:51:24.384Z,384
2022-09-14T09:56:34.091Z,443
2022-09-14T10:02:02.705Z,443
2022-09-14T10:07:12.194Z,345
2022-09-14T10:12:23.831Z,312
2022-09-14T10:17:31.043Z,407
2022-09-14T10:22:43.362Z,413
2022-09-14T10:27:52.482Z,455
2022-09-14T10:33:02.361Z,427
2022-09-14T10:38:11.362Z,381
2022-09-14T10:43:21.764Z,365
2022-09-14T10:48:36.881Z,425
2022-09-14T10:53:45.770Z,396
2022-09-14T10:58:55.560Z,426
2022-09-14T11:04:04.001Z,456
2022-09-14T11:09:14.977Z,368
2022-09-14T11:19:27.888Z,437
2022-09-14T11:24:44.846Z,541
2022-09-14T11:30:00.845Z,591
2022-09-14T11:35:17.171Z,622
2022-09-14T11:37:15.951Z,622
2022-09-14T11:42:26.106Z,532
2022-09-14T11:44:26.078Z,532
2022-09-14T11:48:44.143Z,472
2022-09-14T11:53:32.328Z,489
2022-09-14T12:01:42.295Z,464
2022-09-14T12:06:59.382Z,441
2022-09-14T12:12:15.888Z,439
2022-09-14T12:17:45.724Z,522
2022-09-14T12:22:54.927Z,574
2022-09-14T12:23:37.566Z,574
2022-09-14T12:28:13.613Z,571
2022-09-14T12:28:53.883Z,571
2022-09-14T12:33:31.700Z,565
2022-09-14T12:34:10.534Z,565
2022-09-14T12:38:50.425Z,548
2022-09-14T12:39:27.324Z,548
2022-09-14T12:44:10.405Z,498
2022-09-14T12:44:44.441Z,498
2022-09-14T12:49:24.664Z,427
2022-09-14T12:50:44.248Z,427
2022-09-14T12:55:53.123Z,523
2022-09-14T12:56:13.120Z,523
2022-09-14T13:01:13.639Z,536
2022-09-14T13:05:00.819Z,536
2022-09-14T13:10:16.227Z,628
2022-09-14T13:15:34.349Z,548
2022-09-14T13:20:49.851Z,511
2022-09-14T13:26:05.351Z,550
2022-09-14T13:26:55.344Z,550
2022-09-14T13:36:35.741Z,498
2022-09-14T13:37:25.746Z,498
2022-09-14T13:41:52.533Z,591
2022-09-14T13:42:42.542Z,591
2022-09-14T13:47:25.611Z,711
2022-09-14T13:47:57.454Z,711
2022-09-14T13:53:04.720Z,790
2022-09-14T13:53:21.291Z,790
2022-09-14T13:58:00.478Z,740
2022-09-14T13:58:27.210Z,740
2022-09-14T14:03:21.120Z,738
2022-09-14T14:03:42.715Z,738
2022-09-14T14:08:41.790Z,728
2022-09-14T14:09:01.758Z,728
2022-09-14T14:13:59.840Z,650
2022-09-14T14:14:19.821Z,650
2022-09-14T14:19:19.202Z,602
2022-09-14T14:20:01.688Z,602
2022-09-14T14:25:15.936Z,555
2022-09-14T14:25:33.762Z,555
2022-09-14T14:30:29.921Z,579
2022-09-14T14:30:49.894Z,579
2022-09-14T14:35:52.485Z,554
2022-09-14T14:36:12.465Z,554
2022-09-14T14:41:09.920Z,559
2022-09-14T14:41:29.907Z,559
2022-09-14T14:46:27.511Z,502
2022-09-14T14:46:47.379Z,502
2022-09-14T14:51:45.439Z,525
2022-09-14T14:52:05.404Z,525
2022-09-14T14:57:02.882Z,449
2022-09-14T14:57:22.862Z,449
2022-09-14T15:02:19.685Z,408
2022-09-14T15:02:39.664Z,408
2022-09-14T15:07:39.021Z,537
2022-09-14T15:07:59.010Z,537
2022-09-14T15:12:58.402Z,692
2022-09-14T15:13:18.380Z,692
2022-09-14T15:18:15.841Z,585
2022-09-14T15:18:35.813Z,585
2022-09-14T15:23:32.655Z,668
2022-09-14T15:23:52.631Z,668
2022-09-14T15:28:52.625Z,570
2022-09-14T15:29:12.603Z,570
2022-09-14T15:34:10.725Z,649
2022-09-14T15:34:30.705Z,649
2022-09-14T15:39:28.810Z,556
2022-09-14T15:39:50.127Z,556
2022-09-14T15:48:48.074Z,403
2022-09-14T15:54:04.695Z,378
2022-09-14T15:59:21.485Z,354
2022-09-14T16:04:36.466Z,360
2022-09-14T16:09:55.070Z,366
2022-09-14T16:15:10.664Z,306
2022-09-14T16:20:26.144Z,224
2022-09-14T16:25:40.409Z,160
2022-09-14T16:30:55.271Z,133
2022-09-14T16:36:12.702Z,125
2022-09-14T16:41:28.863Z,166
2022-09-14T16:46:45.057Z,181
2022-09-14T16:52:01.185Z,131
2022-09-14T16:57:16.251Z,113
2022-09-14T17:02:31.009Z,75
2022-09-14T17:07:46.461Z,66
2022-09-14T17:13:01.374Z,86
2022-09-14T17:18:16.863Z,73
2022-09-14T17:23:32.380Z,54
2022-09-14T17:24:22.458Z,54
2022-09-14T17:28:47.267Z,23
2022-09-14T17:29:37.268Z,23
2022-09-14T17:34:04.133Z,22
2022-09-14T17:34:54.133Z,22
2022-09-14T17:39:20.217Z,18
2022-09-14T17:40:10.271Z,18
2022-09-14T17:44:35.773Z,15
2022-09-14T17:45:25.778Z,15
2022-09-14T17:49:50.695Z,18
2022-09-14T17:50:40.642Z,18
2022-09-14T17:55:06.173Z,9
2022-09-14T17:55:56.168Z,9
2022-09-14T18:00:21.005Z,5
2022-09-14T18:01:11.108Z,5
2022-09-14T18:05:37.818Z,1
2022-09-14T18:06:27.820Z,1
2022-09-14T18:10:53.972Z,0
2022-09-14T18:11:43.968Z,0
2022-09-14T18:16:10.213Z,0
2022-09-14T18:23:15.121Z,0
2022-09-14T18:28:25.759Z,0
2022-09-14T18:28:45.735Z,0
2022-09-14T18:33:41.283Z,0
2022-09-14T18:34:01.269Z,0
2022-09-14T18:38:58.942Z,0
2022-09-14T18:39:18.799Z,0
2022-09-14T18:44:17.445Z,0
2022-09-14T18:44:37.428Z,0
2022-09-14T18:49:38.715Z,0
2022-09-14T18:49:58.701Z,0
2022-09-14T18:54:55.543Z,0
2022-09-14T18:55:15.513Z,0
2022-09-14T19:00:19.018Z,0
2022-09-14T19:00:38.483Z,0
2022-09-14T19:05:29.789Z,0
2022-09-14T19:05:49.751Z,0
2022-09-14T19:10:46.598Z,0
2022-09-14T19:11:06.558Z,0
2022-09-14T19:16:06.862Z,0
2022-09-14T19:16:26.638Z,0
2022-09-14T19:21:27.187Z,0
2022-09-14T19:29:53.182Z,0
2022-09-14T19:30:43.185Z,0
2022-09-14T19:35:08.702Z,0
2022-09-14T19:40:24.953Z,0
2022-09-14T19:45:41.103Z,0
2022-09-14T19:50:55.886Z,0
2022-09-14T19:56:11.448Z,0
2022-09-14T20:01:26.462Z,0
2022-09-14T20:06:41.245Z,0
2022-09-14T20:11:56.707Z,0
2022-09-14T20:17:12.219Z,0
2022-09-14T20:22:28.410Z,0
2022-09-14T20:27:44.536Z,0
2022-09-14T20:33:00.703Z,0
2022-09-14T20:38:16.870Z,0
2022-09-14T20:43:34.306Z,0
2022-09-14T20:44:24.308Z,0
2022-09-14T20:48:50.525Z,0
2022-09-14T20:49:40.521Z,0
2022-09-14T20:54:10.725Z,0
2022-09-14T20:55:00.724Z,0
2022-09-14T20:59:22.151Z,0
2022-09-14T21:00:12.152Z,0
2022-09-14T21:04:38.336Z,0
2022-09-14T21:05:28.335Z,0
2022-09-14T21:09:53.169Z,0
2022-09-14T21:10:43.175Z,0
2022-09-14T21:15:09.343Z,0
2022-09-14T21:15:59.415Z,0
2022-09-14T21:20:26.215Z,0
2022-09-14T21:21:16.142Z,0
2022-09-14T21:25:42.339Z,0
2022-09-14T21:26:32.339Z,0
2022-09-14T21:31:00.450Z,0
2022-09-14T21:31:50.380Z,0
2022-09-14T21:36:15.905Z,0
2022-09-14T21:37:05.909Z,0
2022-09-14T21:41:31.422Z,0
2022-09-14T21:42:21.413Z,0
2022-09-14T21:46:46.986Z,0
2022-09-14T21:47:36.972Z,0
2022-09-14T21:52:00.540Z,0
2022-09-14T21:52:50.547Z,0
2022-09-14T21:57:17.345Z,0
2022-09-14T21:58:07.341Z,0
2022-09-14T22:02:32.879Z,0
2022-09-14T22:03:22.860Z,0
2022-09-14T22:07:48.380Z,0
2022-09-14T22:08:38.376Z,0
2022-09-14T22:13:04.557Z,0
2022-09-14T22:13:54.550Z,0
2022-09-14T22:18:19.559Z,0
2022-09-14T22:19:09.569Z,0
2022-09-14T22:23:34.958Z,0
2022-09-14T22:24:24.942Z,0
2022-09-14T22:28:51.137Z,0
2022-09-14T22:34:07.357Z,0
2022-09-14T22:34:57.355Z,0
2022-09-14T22:39:22.780Z,0
2022-09-14T22:40:12.805Z,0
2022-09-14T22:44:38.942Z,0
2022-09-14T22:49:55.138Z,0
2022-09-14T22:50:45.136Z,0
2022-09-14T22:55:11.264Z,0
2022-09-14T22:56:01.264Z,0
2022-09-14T23:00:30.013Z,0
2022-09-14T23:05:44.956Z,0
2022-09-14T23:06:34.958Z,0
2022-09-14T23:11:00.413Z,0
2022-09-14T23:11:50.422Z,0
2022-09-14T23:16:16.621Z,0
2022-09-14T23:17:06.601Z,0
2022-09-14T23:21:33.389Z,0
2022-09-14T23:22:23.375Z,0
2022-09-14T23:26:49.494Z,0
2022-09-14T23:27:39.507Z,0
2022-09-14T23:32:05.669Z,0
2022-09-14T23:32:55.670Z,0
2022-09-14T23:37:20.543Z,0
2022-09-14T23:38:10.542Z,0
2022-09-14T23:42:35.475Z,0
2022-09-14T23:43:25.459Z,0
2022-09-14T23:47:51.608Z,0
2022-09-14T23:48:41.603Z,0
2022-09-14T23:53:07.097Z,0
2022-09-14T23:53:57.107Z,0
2022-09-14T23:58:22.005Z,0
2022-09-14T23:59:12.007Z,0
